createdAt,value
2024-02-26T00:02:19.616Z,98214.44
2024-02-26T00:04:47.238Z,98214.44
2024-02-26T00:07:14.793Z,98213.63
2024-02-26T00:09:42.398Z,98218.75
2024-02-26T00:12:10.605Z,98213.44
2024-02-26T00:14:38.351Z,98211.53
2024-02-26T00:17:05.923Z,98203.44
2024-02-26T00:19:33.697Z,98200.69
2024-02-26T00:22:01.371Z,98201.38
2024-02-26T00:24:28.999Z,98202.06
2024-02-26T00:26:56.697Z,98206.41
2024-02-26T00:29:24.370Z,98209.75
2024-02-26T00:31:51.966Z,98214.03
2024-02-26T00:34:20.141Z,98204.31
2024-02-26T00:36:47.722Z,98197.91
2024-02-26T00:39:15.309Z,98203.19
2024-02-26T00:41:43.028Z,98208.34
2024-02-26T00:44:10.636Z,98197.66
2024-02-26T00:46:38.249Z,98199.31
2024-02-26T00:49:06.025Z,98191.41
2024-02-26T00:51:33.768Z,98186.81
2024-02-26T00:54:01.395Z,98185.81
2024-02-26T00:56:29.675Z,98192.94
2024-02-26T00:58:57.240Z,98203.34
2024-02-26T01:01:24.876Z,98202.41
2024-02-26T01:03:52.652Z,98196.41
2024-02-26T01:06:20.574Z,98208.63
2024-02-26T01:08:48.322Z,98206.84
2024-02-26T01:11:16.069Z,98200.69
2024-02-26T01:13:43.692Z,98196.41
2024-02-26T01:16:12.075Z,98201.84
2024-02-26T01:18:40.091Z,98192.25
2024-02-26T01:21:10.094Z,98181.81
2024-02-26T01:23:37.985Z,98189.03
2024-02-26T01:26:06.065Z,98190.16
2024-02-26T01:28:33.635Z,98192.34
2024-02-26T01:31:01.376Z,98198.75
2024-02-26T01:33:29.120Z,98196.50
2024-02-26T01:35:56.771Z,98197.59
2024-02-26T01:38:24.772Z,98205.81
2024-02-26T01:40:52.411Z,98196.34
2024-02-26T01:43:19.959Z,98204.28
2024-02-26T01:45:47.549Z,98215.94
2024-02-26T01:48:15.308Z,98212.47
2024-02-26T01:50:42.954Z,98209.84
2024-02-26T01:53:10.549Z,98220.41
2024-02-26T01:55:38.187Z,98208.16
2024-02-26T01:58:05.783Z,98214.28
2024-02-26T02:00:34.026Z,98215.94
2024-02-26T02:03:01.861Z,98204.41
2024-02-26T02:05:29.431Z,98206.06
2024-02-26T02:07:57.006Z,98205.13
2024-02-26T02:10:26.906Z,98195.38
2024-02-26T02:12:56.207Z,98196.22
2024-02-26T02:15:23.936Z,98195.25
2024-02-26T02:17:51.663Z,98198.88
2024-02-26T02:20:19.756Z,98204.00
2024-02-26T02:22:48.181Z,98204.84
2024-02-26T02:25:15.901Z,98195.94
2024-02-26T02:27:43.503Z,98201.09
2024-02-26T02:30:11.179Z,98199.28
2024-02-26T02:32:38.966Z,98203.63
2024-02-26T02:35:06.598Z,98206.09
2024-02-26T02:37:34.168Z,98211.38
2024-02-26T02:40:01.771Z,98215.69
2024-02-26T02:42:29.419Z,98217.50
2024-02-26T02:44:57.422Z,98219.31
2024-02-26T02:47:25.084Z,98219.47
2024-02-26T02:49:52.741Z,98223.91
2024-02-26T02:52:20.304Z,98226.41
2024-02-26T02:54:48.326Z,98229.88
2024-02-26T02:57:15.910Z,98223.78
2024-02-26T02:59:43.513Z,98225.44
2024-02-26T03:02:11.197Z,98228.06
2024-02-26T03:04:38.959Z,98227.22
2024-02-26T03:07:07.233Z,98232.66
2024-02-26T03:09:34.889Z,98230.97
2024-02-26T03:12:02.499Z,98239.75
2024-02-26T03:14:30.153Z,98234.47
2024-02-26T03:16:57.784Z,98232.66
2024-02-26T03:19:26.960Z,98234.34
2024-02-26T03:21:54.993Z,98230.72
2024-02-26T03:24:22.683Z,98235.03
2024-02-26T03:26:50.435Z,98238.50
2024-02-26T03:29:18.374Z,98237.66
2024-02-26T03:31:45.969Z,98237.66
2024-02-26T03:34:15.111Z,98244.63
2024-02-26T03:36:43.337Z,98241.16
2024-02-26T03:39:10.991Z,98248.09
2024-02-26T03:41:38.519Z,98233.22
2024-02-26T03:44:06.072Z,98241.00
2024-02-26T03:46:33.653Z,98235.72
2024-02-26T03:49:01.390Z,98244.63
2024-02-26T03:51:32.524Z,98231.41
2024-02-26T03:54:00.328Z,98227.22
2024-02-26T03:56:27.913Z,98228.31
2024-02-26T03:58:55.469Z,98222.47
2024-02-26T04:01:23.694Z,98220.97
2024-02-26T04:03:51.441Z,98215.94
2024-02-26T04:06:22.199Z,98218.94
2024-02-26T04:08:50.030Z,98222.97
2024-02-26T04:11:19.285Z,98215.19
2024-02-26T04:13:50.602Z,98217.00
2024-02-26T04:16:18.332Z,98213.63
2024-02-26T04:18:46.082Z,98208.63
2024-02-26T04:21:13.934Z,98205.31
2024-02-26T04:23:41.550Z,98215.88
2024-02-26T04:26:09.137Z,98215.88
2024-02-26T04:28:37.476Z,98217.53
2024-02-26T04:31:05.084Z,98215.88
2024-02-26T04:33:32.836Z,98221.13
2024-02-26T04:36:01.050Z,98244.75
2024-02-26T04:38:28.655Z,98245.03
2024-02-26T04:40:56.263Z,98225.00
2024-02-26T04:43:23.861Z,98226.66
2024-02-26T04:45:51.396Z,98230.97
2024-02-26T04:48:19.115Z,98231.13
2024-02-26T04:50:46.846Z,98234.75
2024-02-26T04:53:14.497Z,98242.66
2024-02-26T04:55:42.086Z,98247.94
2024-02-26T04:58:10.219Z,98256.69
2024-02-26T05:00:37.774Z,98255.00
2024-02-26T05:03:05.407Z,98265.56
2024-02-26T05:05:33.090Z,98273.63
2024-02-26T05:08:00.665Z,98278.19
2024-02-26T05:10:28.238Z,98280.56
2024-02-26T05:12:55.848Z,98283.94
2024-02-26T05:15:23.506Z,98284.75
2024-02-26T05:17:51.133Z,98282.84
2024-02-26T05:20:18.745Z,98289.78
2024-02-26T05:22:46.277Z,98292.16
2024-02-26T05:25:13.831Z,98294.53
2024-02-26T05:27:41.426Z,98302.31
2024-02-26T05:30:09.145Z,98309.25
2024-02-26T05:32:36.728Z,98303.97
2024-02-26T05:35:05.032Z,98305.91
2024-02-26T05:37:32.680Z,98287.31
2024-02-26T05:40:00.596Z,98308.44
2024-02-26T05:42:28.732Z,98308.44
2024-02-26T05:44:56.329Z,98304.81
2024-02-26T05:47:23.953Z,98304.13
2024-02-26T05:49:51.577Z,98299.81
2024-02-26T05:52:19.111Z,98314.81
2024-02-26T05:54:46.645Z,98308.69
2024-02-26T05:57:14.346Z,98301.72
2024-02-26T05:59:42.012Z,98304.38
2024-02-26T06:02:09.663Z,98306.19
2024-02-26T06:04:37.849Z,98302.72
2024-02-26T06:07:06.398Z,98294.91
2024-02-26T06:09:34.105Z,98311.72
2024-02-26T06:12:01.774Z,98304.78
2024-02-26T06:14:29.339Z,98312.81
2024-02-26T06:16:56.925Z,98306.72
2024-02-26T06:19:24.798Z,98314.63
2024-02-26T06:21:52.562Z,98315.59
2024-02-26T06:24:22.004Z,98320.03
2024-02-26T06:26:50.031Z,98318.38
2024-02-26T06:29:17.606Z,98321.84
2024-02-26T06:31:45.358Z,98327.00
2024-02-26T06:34:13.263Z,98333.13
2024-02-26T06:36:40.907Z,98333.13
2024-02-26T06:39:09.449Z,98342.81
2024-02-26T06:41:37.722Z,98335.06
2024-02-26T06:44:05.293Z,98339.50
2024-02-26T06:46:32.870Z,98337.53
2024-02-26T06:49:00.847Z,98353.38
2024-02-26T06:51:28.582Z,98348.09
2024-02-26T06:53:56.205Z,98344.50
2024-02-26T06:56:23.909Z,98347.88
2024-02-26T06:58:51.524Z,98353.16
2024-02-26T07:01:19.167Z,98338.13
2024-02-26T07:03:47.028Z,98350.34
2024-02-26T07:06:15.438Z,98360.78
2024-02-26T07:08:43.144Z,98352.06
2024-02-26T07:11:11.311Z,98353.84
2024-02-26T07:13:39.757Z,98357.19
2024-02-26T07:16:09.006Z,98361.50
2024-02-26T07:18:37.129Z,98369.41
2024-02-26T07:21:04.968Z,98368.31
2024-02-26T07:23:32.593Z,98368.19
2024-02-26T07:26:00.241Z,98377.50
2024-02-26T07:28:27.830Z,98366.84
2024-02-26T07:30:55.392Z,98381.59
2024-02-26T07:33:23.594Z,98377.19
2024-02-26T07:35:51.298Z,98378.94
2024-02-26T07:38:27.715Z,98384.94
2024-02-26T07:41:03.434Z,98383.97
2024-02-26T07:43:31.591Z,98390.00
2024-02-26T07:45:59.270Z,98392.47
2024-02-26T07:48:27.040Z,98389.72
2024-02-26T07:50:54.755Z,98386.97
2024-02-26T07:53:22.449Z,98396.44
2024-02-26T07:55:51.092Z,98402.41
2024-02-26T07:58:18.957Z,98395.19
2024-02-26T08:00:47.831Z,98406.44
2024-02-26T08:03:17.181Z,98397.53
2024-02-26T08:05:45.203Z,98402.47
2024-02-26T08:08:13.051Z,98407.59
2024-02-26T08:10:40.697Z,98400.41
2024-02-26T08:13:08.435Z,98406.38
2024-02-26T08:15:36.637Z,98410.69
2024-02-26T08:18:05.262Z,98410.41
2024-02-26T08:20:33.245Z,98425.16
2024-02-26T08:23:01.144Z,98417.13
2024-02-26T08:25:28.909Z,98418.66
2024-02-26T08:27:56.568Z,98422.97
2024-02-26T08:30:24.371Z,98417.56
2024-02-26T08:32:52.825Z,98424.38
2024-02-26T08:35:20.953Z,98418.97
2024-02-26T08:37:49.342Z,98418.00
2024-02-26T08:40:17.181Z,98429.25
2024-02-26T08:42:44.946Z,98422.06
2024-02-26T08:45:12.763Z,98427.19
2024-02-26T08:47:40.485Z,98429.72
2024-02-26T08:50:10.749Z,98429.59
2024-02-26T08:52:38.768Z,98421.38
2024-02-26T08:55:07.333Z,98427.22
2024-02-26T08:57:35.260Z,98424.34
2024-02-26T09:00:03.505Z,98429.22
2024-02-26T09:02:31.415Z,98418.94
2024-02-26T09:04:59.086Z,98426.75
2024-02-26T09:07:27.020Z,98431.63
2024-02-26T09:09:54.676Z,98423.41
2024-02-26T09:12:22.474Z,98422.19
2024-02-26T09:14:50.310Z,98422.59
2024-02-26T09:17:17.976Z,98430.16
2024-02-26T09:19:45.814Z,98415.66
2024-02-26T09:22:17.768Z,98435.44
2024-02-26T09:24:46.596Z,98429.75
2024-02-26T09:27:14.430Z,98429.34
2024-02-26T09:29:42.222Z,98433.38
2024-02-26T09:32:09.888Z,98437.44
2024-02-26T09:34:38.268Z,98440.78
2024-02-26T09:37:15.284Z,98441.75
2024-02-26T09:39:47.485Z,98443.44
2024-02-26T09:42:15.790Z,98441.59
2024-02-26T09:44:43.813Z,98446.63
2024-02-26T09:47:11.636Z,98447.19
2024-02-26T09:49:39.411Z,98441.50
2024-02-26T09:52:07.187Z,98447.22
2024-02-26T09:54:35.072Z,98448.59
2024-02-26T09:57:04.850Z,98451.81
2024-02-26T09:59:32.834Z,98475.34
2024-02-26T10:02:00.591Z,98480.66
2024-02-26T10:04:28.767Z,98479.69
2024-02-26T10:06:56.554Z,98490.97
2024-02-26T10:09:26.226Z,98497.81
2024-02-26T10:11:54.057Z,98503.50
2024-02-26T10:14:22.521Z,98498.78
2024-02-26T10:16:50.322Z,98498.38
2024-02-26T10:19:18.131Z,98499.91
2024-02-26T10:21:45.858Z,98495.16
2024-02-26T10:24:13.624Z,98505.50
2024-02-26T10:26:41.667Z,98506.19
2024-02-26T10:29:11.481Z,98508.28
2024-02-26T10:31:39.306Z,98512.06
2024-02-26T10:34:07.099Z,98514.13
2024-02-26T10:36:43.854Z,98514.56
2024-02-26T10:39:16.312Z,98507.84
2024-02-26T10:41:44.158Z,98506.31
2024-02-26T10:44:15.830Z,98511.19
2024-02-26T10:46:45.739Z,98509.09
2024-02-26T10:49:13.683Z,98507.97
2024-02-26T10:51:41.618Z,98512.84
2024-02-26T10:54:11.267Z,98518.56
2024-02-26T10:56:42.638Z,98513.56
2024-02-26T10:59:10.434Z,98527.78
2024-02-26T11:01:39.940Z,98533.91
2024-02-26T11:04:07.715Z,98525.47
2024-02-26T11:06:36.246Z,98537.06
2024-02-26T11:09:04.770Z,98535.34
2024-02-26T11:11:32.484Z,98531.97
2024-02-26T11:14:00.335Z,98529.84
2024-02-26T11:16:28.007Z,98531.53
2024-02-26T11:18:56.681Z,98524.25
2024-02-26T11:21:31.317Z,98524.25
2024-02-26T11:23:59.240Z,98521.59
2024-02-26T11:26:27.047Z,98518.13
2024-02-26T11:28:54.895Z,98530.41
2024-02-26T11:31:28.283Z,98531.22
2024-02-26T11:33:56.295Z,98537.38
2024-02-26T11:36:24.225Z,98542.69
2024-02-26T11:38:53.440Z,98539.19
2024-02-26T11:41:21.559Z,98534.88
2024-02-26T11:43:49.432Z,98537.66
2024-02-26T11:46:17.087Z,98536.00
2024-02-26T11:48:44.885Z,98534.31
2024-02-26T11:51:14.142Z,98540.47
2024-02-26T11:53:42.202Z,98538.38
2024-02-26T11:56:10.012Z,98543.38
2024-02-26T11:58:38.192Z,98549.38
2024-02-26T12:01:05.958Z,98553.56
2024-02-26T12:03:33.788Z,98560.25
2024-02-26T12:06:01.614Z,98557.03
2024-02-26T12:08:29.537Z,98566.22
2024-02-26T12:10:57.533Z,98570.09
2024-02-26T12:13:25.915Z,98577.63
2024-02-26T12:15:54.211Z,98581.81
2024-02-26T12:18:23.057Z,98581.94
2024-02-26T12:20:50.926Z,98577.22
2024-02-26T12:23:18.825Z,98585.63
2024-02-26T12:25:49.561Z,98577.09
2024-02-26T12:28:17.437Z,98587.91
2024-02-26T12:30:45.107Z,98588.72
2024-02-26T12:33:13.321Z,98588.88
2024-02-26T12:35:41.177Z,98584.25
2024-02-26T12:38:09.535Z,98585.94
2024-02-26T12:40:37.534Z,98578.25
2024-02-26T12:43:05.364Z,98576.44
2024-02-26T12:45:33.334Z,98579.75
2024-02-26T12:48:01.757Z,98575.00
2024-02-26T12:50:29.896Z,98577.06
2024-02-26T12:52:57.546Z,98576.91
2024-02-26T12:55:25.530Z,98582.00
2024-02-26T12:57:53.447Z,98578.91
2024-02-26T13:00:21.668Z,98577.91
2024-02-26T13:02:50.620Z,98578.75
2024-02-26T13:05:18.462Z,98587.00
2024-02-26T13:07:47.362Z,98595.59
2024-02-26T13:10:15.192Z,98590.00
2024-02-26T13:12:43.045Z,98592.13
2024-02-26T13:15:10.875Z,98602.19
2024-02-26T13:17:38.726Z,98613.00
2024-02-26T13:20:07.216Z,98623.63
2024-02-26T13:22:36.433Z,98626.28
2024-02-26T13:25:04.824Z,98623.63
2024-02-26T13:27:32.617Z,98628.63
2024-02-26T13:30:00.572Z,98616.56
2024-02-26T13:32:32.674Z,98623.56
2024-02-26T13:35:00.926Z,98632.38
2024-02-26T13:37:28.829Z,98623.41
2024-02-26T13:39:56.699Z,98639.22
2024-02-26T13:42:24.469Z,98631.13
2024-02-26T13:44:56.261Z,98640.88
2024-02-26T13:47:24.408Z,98654.03
2024-02-26T13:49:52.277Z,98655.97
2024-02-26T13:52:21.386Z,98650.53
2024-02-26T13:54:49.250Z,98655.97
2024-02-26T13:57:17.185Z,98654.31
2024-02-26T13:59:45.001Z,98652.63
2024-02-26T14:02:13.009Z,98662.13
2024-02-26T14:04:40.913Z,98667.00
2024-02-26T14:07:09.341Z,98672.75
2024-02-26T14:09:46.311Z,98670.19
2024-02-26T14:12:20.245Z,98669.25
2024-02-26T14:14:50.312Z,98664.34
2024-02-26T14:17:18.316Z,98663.75
2024-02-26T14:19:46.252Z,98663.44
2024-02-26T14:22:14.137Z,98667.25
2024-02-26T14:24:42.630Z,98669.75
2024-02-26T14:27:11.057Z,98664.16
2024-02-26T14:29:41.388Z,98666.34
2024-02-26T14:32:09.251Z,98670.91
2024-02-26T14:34:37.092Z,98667.25
2024-02-26T14:37:05.392Z,98676.59
2024-02-26T14:39:33.268Z,98679.69
2024-02-26T14:42:01.094Z,98674.31
2024-02-26T14:44:29.018Z,98672.91
2024-02-26T14:46:56.739Z,98682.81
2024-02-26T14:49:25.075Z,98680.47
2024-02-26T14:51:53.940Z,98687.22
2024-02-26T14:54:21.903Z,98694.47
2024-02-26T14:56:50.444Z,98701.31
2024-02-26T14:59:18.346Z,98705.91
2024-02-26T15:01:48.091Z,98702.50
2024-02-26T15:04:16.614Z,98698.38
2024-02-26T15:06:44.714Z,98700.53
2024-02-26T15:09:12.668Z,98699.81
2024-02-26T15:11:41.017Z,98706.13
2024-02-26T15:14:09.044Z,98710.91
2024-02-26T15:16:36.802Z,98726.47
2024-02-26T15:19:04.937Z,98729.47
2024-02-26T15:21:33.204Z,98732.13
2024-02-26T15:24:07.731Z,98733.31
2024-02-26T15:26:36.424Z,98752.75
2024-02-26T15:29:04.762Z,98744.19
2024-02-26T15:31:33.143Z,98752.97
2024-02-26T15:34:01.327Z,98764.03
2024-02-26T15:36:29.284Z,98767.78
2024-02-26T15:38:58.523Z,98772.66
2024-02-26T15:41:26.551Z,98776.50
2024-02-26T15:43:54.493Z,98771.97
2024-02-26T15:46:22.341Z,98779.56
2024-02-26T15:48:50.501Z,98783.50
2024-02-26T15:51:18.334Z,98781.81
2024-02-26T15:53:47.122Z,98787.19
2024-02-26T15:56:15.505Z,98791.50
2024-02-26T15:58:43.285Z,98787.72
2024-02-26T16:01:19.608Z,98800.88
2024-02-26T16:03:51.712Z,98805.06
2024-02-26T16:06:19.564Z,98811.78
2024-02-26T16:08:47.473Z,98825.47
2024-02-26T16:11:15.449Z,98831.19
2024-02-26T16:13:43.308Z,98835.22
2024-02-26T16:16:11.901Z,98836.47
2024-02-26T16:18:39.953Z,98853.63
2024-02-26T16:21:07.916Z,98856.69
2024-02-26T16:23:35.926Z,98858.06
2024-02-26T16:26:03.866Z,98863.66
2024-02-26T16:28:31.805Z,98864.06
2024-02-26T16:30:59.747Z,98868.94
2024-02-26T16:33:28.061Z,98869.22
2024-02-26T16:35:56.554Z,98878.38
2024-02-26T16:38:24.468Z,98892.91
2024-02-26T16:40:52.589Z,98899.31
2024-02-26T16:43:20.366Z,98900.38
2024-02-26T16:45:49.280Z,98900.78
2024-02-26T16:48:17.512Z,98907.19
2024-02-26T16:50:45.239Z,98911.78
2024-02-26T16:53:13.050Z,98917.31
2024-02-26T16:55:40.865Z,98924.59
2024-02-26T16:58:08.947Z,98925.81
2024-02-26T17:00:36.954Z,98926.06
2024-02-26T17:03:05.016Z,98935.13
2024-02-26T17:05:32.922Z,98931.78
2024-02-26T17:08:00.796Z,98943.47
2024-02-26T17:10:28.876Z,98956.00
2024-02-26T17:12:56.702Z,98958.78
2024-02-26T17:15:24.590Z,98953.59
2024-02-26T17:17:52.671Z,98967.13
2024-02-26T17:20:21.542Z,98978.69
2024-02-26T17:22:49.540Z,98977.13
2024-02-26T17:25:17.862Z,98990.50
2024-02-26T17:27:45.718Z,98995.09
2024-02-26T17:30:13.967Z,98998.03
2024-02-26T17:32:41.961Z,99003.31
2024-02-26T17:35:15.341Z,99006.09
2024-02-26T17:37:43.362Z,99008.84
2024-02-26T17:40:11.121Z,99009.00
2024-02-26T17:42:39.357Z,99017.19
2024-02-26T17:45:07.533Z,99023.34
2024-02-26T17:47:35.531Z,99025.28
2024-02-26T17:50:04.536Z,99037.78
2024-02-26T17:52:37.949Z,99045.03
2024-02-26T17:55:05.993Z,99038.06
2024-02-26T17:57:33.977Z,99052.28
2024-02-26T18:00:02.126Z,99050.59
2024-02-26T18:02:30.697Z,99052.50
2024-02-26T18:04:58.861Z,99055.31
2024-02-26T18:07:26.813Z,99058.06
2024-02-26T18:09:54.622Z,99063.63
2024-02-26T18:12:22.516Z,99062.78
2024-02-26T18:14:50.683Z,99072.66
2024-02-26T18:17:19.959Z,99071.78
2024-02-26T18:19:48.045Z,99078.06
2024-02-26T18:22:16.008Z,99080.00
2024-02-26T18:24:43.956Z,99081.78
2024-02-26T18:27:12.326Z,99086.28
2024-02-26T18:29:41.859Z,99091.69
2024-02-26T18:32:09.883Z,99094.44
2024-02-26T18:34:39.369Z,99104.06
2024-02-26T18:37:08.401Z,99105.03
2024-02-26T18:39:36.333Z,99108.66
2024-02-26T18:42:06.489Z,99115.63
2024-02-26T18:44:35.269Z,99118.16
2024-02-26T18:47:03.164Z,99118.16
2024-02-26T18:49:33.813Z,99131.28
2024-02-26T18:52:01.895Z,99124.16
2024-02-26T18:54:29.973Z,99127.66
2024-02-26T18:56:58.041Z,99132.00
2024-02-26T18:59:26.017Z,99131.03
2024-02-26T19:01:53.933Z,99143.31
2024-02-26T19:04:22.026Z,99149.56
2024-02-26T19:06:50.158Z,99148.59
2024-02-26T19:09:18.235Z,99153.91
2024-02-26T19:11:46.561Z,99156.44
2024-02-26T19:14:14.459Z,99156.44
2024-02-26T19:16:43.193Z,99161.63
2024-02-26T19:19:11.314Z,99170.41
2024-02-26T19:21:39.376Z,99171.25
2024-02-26T19:24:07.956Z,99165.94
2024-02-26T19:26:35.882Z,99173.91
2024-02-26T19:29:07.391Z,99181.00
2024-02-26T19:31:37.049Z,99183.53
2024-02-26T19:34:05.759Z,99193.16
2024-02-26T19:36:33.795Z,99188.72
2024-02-26T19:39:02.218Z,99189.53
2024-02-26T19:41:30.205Z,99193.03
2024-02-26T19:43:58.098Z,99202.78
2024-02-26T19:46:25.819Z,99209.75
2024-02-26T19:48:53.779Z,99208.94
2024-02-26T19:51:21.803Z,99208.94
2024-02-26T19:53:49.763Z,99222.03
2024-02-26T19:56:19.867Z,99222.03
2024-02-26T19:58:47.893Z,99226.38
2024-02-26T20:01:15.805Z,99233.50
2024-02-26T20:03:49.594Z,99241.44
2024-02-26T20:06:18.653Z,99253.00
2024-02-26T20:08:46.746Z,99253.00
2024-02-26T20:11:14.668Z,99251.19
2024-02-26T20:13:43.465Z,99257.31
2024-02-26T20:16:11.216Z,99267.06
2024-02-26T20:18:39.095Z,99262.75
2024-02-26T20:21:07.128Z,99267.22
2024-02-26T20:23:34.985Z,99269.84
2024-02-26T20:26:02.962Z,99276.13
2024-02-26T20:28:32.989Z,99272.63
2024-02-26T20:31:00.879Z,99281.44
2024-02-26T20:33:28.987Z,99287.66
2024-02-26T20:35:57.009Z,99286.84
2024-02-26T20:38:25.733Z,99292.94
2024-02-26T20:40:53.718Z,99287.78
2024-02-26T20:43:21.565Z,99293.91
2024-02-26T20:45:53.384Z,99300.19
2024-02-26T20:48:21.746Z,99295.75
2024-02-26T20:50:49.684Z,99296.72
2024-02-26T20:53:17.455Z,99303.81
2024-02-26T20:55:45.436Z,99314.28
2024-02-26T20:58:13.360Z,99309.09
2024-02-26T21:00:42.924Z,99316.06
2024-02-26T21:03:11.770Z,99315.97
2024-02-26T21:05:39.793Z,99319.59
2024-02-26T21:08:13.511Z,99323.06
2024-02-26T21:10:44.869Z,99339.91
2024-02-26T21:13:12.809Z,99330.19
2024-02-26T21:15:41.843Z,99337.97
2024-02-26T21:18:10.710Z,99342.47
2024-02-26T21:20:38.670Z,99346.91
2024-02-26T21:23:06.900Z,99354.03
2024-02-26T21:25:34.882Z,99354.13
2024-02-26T21:28:03.616Z,99356.88
2024-02-26T21:30:31.428Z,99357.84
2024-02-26T21:32:59.345Z,99364.09
2024-02-26T21:35:27.270Z,99366.88
2024-02-26T21:37:55.262Z,99374.94
2024-02-26T21:40:23.090Z,99383.81
2024-02-26T21:42:51.407Z,99382.13
2024-02-26T21:45:22.180Z,99394.66
2024-02-26T21:47:50.362Z,99398.16
2024-02-26T21:50:18.097Z,99396.50
2024-02-26T21:52:45.979Z,99406.22
2024-02-26T21:55:13.822Z,99413.31
2024-02-26T21:57:41.807Z,99408.97
2024-02-26T22:00:09.683Z,99418.75
2024-02-26T22:02:37.574Z,99420.44
2024-02-26T22:05:05.711Z,99430.16
2024-02-26T22:07:33.639Z,99425.72
2024-02-26T22:10:01.517Z,99428.38
2024-02-26T22:12:29.299Z,99433.78
2024-02-26T22:14:57.100Z,99438.25
2024-02-26T22:17:24.921Z,99444.47
2024-02-26T22:19:52.733Z,99441.97
2024-02-26T22:22:20.505Z,99448.09
2024-02-26T22:24:48.355Z,99446.41
2024-02-26T22:27:16.578Z,99450.88
2024-02-26T22:29:44.307Z,99456.25
2024-02-26T22:32:12.000Z,99457.22
2024-02-26T22:34:39.800Z,99459.03
2024-02-26T22:37:07.657Z,99468.88
2024-02-26T22:39:35.640Z,99473.31
2024-02-26T22:42:03.532Z,99469.00
2024-02-26T22:44:31.222Z,99466.34
2024-02-26T22:46:58.988Z,99471.88
2024-02-26T22:49:27.058Z,99478.97
2024-02-26T22:51:55.824Z,99479.94
2024-02-26T22:54:23.948Z,99481.75
2024-02-26T22:56:51.642Z,99485.31
2024-02-26T22:59:19.274Z,99488.09
2024-02-26T23:01:47.054Z,99486.28
2024-02-26T23:04:15.492Z,99499.66
2024-02-26T23:06:43.212Z,99502.41
2024-02-26T23:09:10.919Z,99503.38
2024-02-26T23:11:38.906Z,99498.16
2024-02-26T23:14:06.527Z,99498.16
2024-02-26T23:16:34.170Z,99513.19
2024-02-26T23:19:03.933Z,99518.50
2024-02-26T23:21:31.569Z,99529.06
2024-02-26T23:24:02.653Z,99529.06
2024-02-26T23:26:30.323Z,99538.75
2024-02-26T23:28:57.976Z,99542.31
2024-02-26T23:31:25.701Z,99540.63
2024-02-26T23:33:55.176Z,99549.44
2024-02-26T23:36:22.996Z,99542.44
2024-02-26T23:38:53.835Z,99543.28
2024-02-26T23:41:22.913Z,99548.56
2024-02-26T23:43:50.598Z,99548.56
2024-02-26T23:46:18.302Z,99548.56
2024-02-26T23:48:46.720Z,99548.56
2024-02-26T23:51:14.362Z,99554.81
2024-02-26T23:53:42.105Z,99553.88
2024-02-26T23:56:10.101Z,99554.72
2024-02-26T23:58:37.726Z,99566.28
